Time;durP1;ratioP1;P1;durP2;ratioP2;P2;SDS_P1;SDS_P2;PMS_P1;PMS_P2;Temp;Humidity;BMP_temperature;BMP_pressure;BME280_temperature;BME280_humidity;BME280_pressure;Samples;Min_cycle;Max_cycle;Signal;HPM_P1;HPM_P2
2020/12/13 00:00:54;;;;;;;113.92;66.02;;;;;;;4.88;80.92;99336.26;2918635;80;21163;-64
2020/12/13 00:04:57;;;;;;;100.95;59.35;;;;;;;5.02;80.44;99335.73;2918826;80;21115;-65
2020/12/13 00:09:03;;;;;;;94.77;61.18;;;;;;;5.06;79.76;99334.55;2913441;81;21158;-65
2020/12/13 00:13:06;;;;;;;100.42;62.15;;;;;;;5.14;79.80;99334.83;2904190;81;21708;-64
2020/12/13 00:17:09;;;;;;;78.97;50.35;;;;;;;5.25;79.61;99341.44;2904209;81;21614;-64
2020/12/13 00:21:14;;;;;;;69.17;45.05;;;;;;;5.27;78.99;99341.34;2904245;82;21147;-65
2020/12/13 00:25:17;;;;;;;73.10;44.00;;;;;;;5.26;78.80;99343.62;2904215;80;21128;-65
2020/12/13 00:29:20;;;;;;;66.85;39.67;;;;;;;5.12;78.23;99352.56;2928059;80;21125;-65
2020/12/13 00:33:23;;;;;;;73.47;44.08;;;;;;;4.99;78.77;99360.51;2947168;80;21129;-64
2020/12/13 00:37:27;;;;;;;95.62;55.43;;;;;;;5.08;79.85;99357.67;2947310;79;21140;-65
2020/12/13 00:41:30;;;;;;;78.02;45.12;;;;;;;5.23;79.82;99364.45;2947108;80;21129;-65
2020/12/13 00:45:33;;;;;;;71.72;43.70;;;;;;;5.31;78.87;99359.93;2947216;80;21177;-65
2020/12/13 00:49:37;;;;;;;85.67;45.05;;;;;;;5.16;77.94;99365.88;2947111;80;21114;-64
2020/12/13 00:53:39;;;;;;;67.30;39.20;;;;;;;4.94;78.22;99372.73;2947455;80;21146;-64
2020/12/13 00:57:42;;;;;;;65.12;37.95;;;;;;;4.71;78.83;99373.89;2947071;80;21559;-64
2020/12/13 01:01:45;;;;;;;55.52;36.23;;;;;;;4.53;79.56;99381.34;2947014;80;21556;-64
2020/12/13 01:05:48;;;;;;;62.73;41.42;;;;;;;4.45;80.12;99381.52;2947217;80;21591;-65
2020/12/13 01:09:52;;;;;;;61.30;36.10;;;;;;;4.45;80.61;99381.05;2949352;80;21446;-63
2020/12/13 01:13:57;;;;;;;57.03;34.70;;;;;;;4.53;80.78;99389.73;2952240;80;21110;-64
2020/12/13 01:18:00;;;;;;;53.78;35.52;;;;;;;4.64;80.63;99394.23;2952176;80;21615;-64
2020/12/13 01:22:03;;;;;;;44.50;31.00;;;;;;;4.74;80.37;99391.78;2952259;80;21146;-64
2020/12/13 01:26:12;;;;;;;52.65;32.35;;;;;;;4.78;79.96;99398.51;2952286;80;21141;-63
2020/12/13 01:30:15;;;;;;;48.28;31.02;;;;;;;4.79;79.85;99401.02;2951629;80;22159;-64
2020/12/13 01:34:20;;;;;;;49.18;27.37;;;;;;;4.73;79.70;99405.41;2951766;80;21125;-64
2020/12/13 01:38:23;;;;;;;48.98;27.98;;;;;;;4.62;79.74;99414.55;2952286;79;21133;-65
2020/12/13 01:42:26;;;;;;;47.25;29.67;;;;;;;4.49;80.14;99420.70;2952181;80;21153;-65
2020/12/13 01:46:30;;;;;;;40.58;26.07;;;;;;;4.39;80.60;99419.19;2952338;80;21137;-65
2020/12/13 01:54:40;;;;;;;39.85;27.15;;;;;;;4.22;81.54;99420.84;2952215;80;21527;-64
2020/12/13 01:58:46;;;;;;;44.75;29.18;;;;;;;4.23;81.83;99427.78;2951831;80;21117;-65
2020/12/13 02:02:59;;;;;;;51.20;33.23;;;;;;;4.34;82.32;99431.84;2952657;80;21145;-64
2020/12/13 02:07:05;;;;;;;50.33;31.33;;;;;;;4.55;82.24;99434.75;2951943;80;21180;-65
2020/12/13 02:11:10;;;;;;;59.90;33.45;;;;;;;4.69;81.33;99436.40;2948454;80;21181;-65
2020/12/13 02:15:13;;;;;;;59.15;34.95;;;;;;;4.76;80.92;99434.66;2947183;80;21125;-65
2020/12/13 02:19:17;;;;;;;38.60;25.68;;;;;;;4.70;80.35;99434.12;2947140;80;21145;-65
2020/12/13 02:23:20;;;;;;;51.10;30.05;;;;;;;4.59;80.62;99434.06;2947086;80;21121;-65
2020/12/13 02:27:23;;;;;;;52.62;33.13;;;;;;;4.54;81.04;99436.19;2947031;80;21425;-65
2020/12/13 02:31:27;;;;;;;36.15;24.92;;;;;;;4.58;80.97;99437.65;2947019;80;21118;-65
2020/12/13 02:35:30;;;;;;;37.83;24.45;;;;;;;4.55;80.89;99438.70;2947116;79;21114;-65
2020/12/13 02:39:33;;;;;;;36.95;21.90;;;;;;;4.48;80.95;99444.50;2947116;80;21126;-65
2020/12/13 02:43:36;;;;;;;34.30;23.85;;;;;;;4.43;81.12;99440.41;2946918;80;21085;-65
2020/12/13 02:47:40;;;;;;;31.25;23.20;;;;;;;4.42;81.44;99449.72;2947064;80;21149;-64
2020/12/13 02:51:43;;;;;;;35.70;22.32;;;;;;;4.56;82.65;99443.51;2947067;80;21151;-65
2020/12/13 02:55:46;;;;;;;35.65;22.73;;;;;;;4.77;81.64;99442.94;2947263;80;21141;-65
2020/12/13 02:59:49;;;;;;;46.15;25.40;;;;;;;4.87;81.07;99445.27;2947267;80;21117;-65
2020/12/13 03:03:52;;;;;;;33.10;22.87;;;;;;;4.96;80.51;99436.71;2947446;80;21121;-64
2020/12/13 03:07:55;;;;;;;32.28;22.55;;;;;;;4.87;79.83;99447.90;2947514;80;21146;-65
2020/12/13 03:11:58;;;;;;;46.70;24.27;;;;;;;4.82;80.16;99449.56;2947029;80;21133;-64
2020/12/13 03:16:01;;;;;;;35.70;23.32;;;;;;;4.86;80.39;99449.70;2947424;80;21169;-64
2020/12/13 03:20:04;;;;;;;34.27;23.30;;;;;;;4.93;80.25;99443.53;2947209;80;21192;-63
2020/12/13 03:24:08;;;;;;;37.25;24.57;;;;;;;5.00;80.26;99448.70;2947056;80;21576;-64
2020/12/13 03:28:11;;;;;;;33.42;21.50;;;;;;;5.15;80.39;99449.88;2947363;80;21149;-64
2020/12/13 03:32:15;;;;;;;33.08;20.85;;;;;;;5.23;79.29;99454.59;2947155;80;21185;-64
2020/12/13 03:36:18;;;;;;;36.17;23.05;;;;;;;5.11;78.83;99454.98;2947530;79;21111;-64
2020/12/13 03:40:21;;;;;;;35.58;22.45;;;;;;;4.91;79.19;99469.12;2947274;80;21172;-64
2020/12/13 03:44:25;;;;;;;46.18;28.87;;;;;;;4.79;79.79;99476.60;2947190;80;21169;-65
2020/12/13 03:48:27;;;;;;;33.53;22.73;;;;;;;4.70;80.27;99474.14;2946924;80;21153;-64
2020/12/13 03:52:30;;;;;;;40.15;22.75;;;;;;;4.62;80.55;99477.77;2947236;80;21157;-64
2020/12/13 03:56:34;;;;;;;32.58;19.30;;;;;;;4.52;80.96;99482.37;2947263;80;21133;-65
2020/12/13 04:00:37;;;;;;;30.60;20.70;;;;;;;4.48;81.31;99481.38;2947239;80;21548;-64
2020/12/13 04:04:40;;;;;;;30.72;20.45;;;;;;;4.48;81.53;99483.55;2909149;80;21110;-64
2020/12/13 04:08:42;;;;;;;29.23;19.87;;;;;;;4.53;81.82;99479.28;2898947;82;21158;-64
2020/12/13 04:12:47;;;;;;;36.75;20.45;;;;;;;4.67;81.66;99484.90;2900089;81;22285;-63
2020/12/13 04:16:49;;;;;;;36.95;22.58;;;;;;;4.81;81.44;99482.60;2896678;82;21170;-64
2020/12/13 04:20:53;;;;;;;37.05;24.20;;;;;;;4.95;81.09;99479.84;2897190;82;21162;-64
2020/12/13 04:24:57;;;;;;;24.12;17.55;;;;;;;5.09;80.60;99477.98;2899376;80;21159;-64
2020/12/13 04:29:00;;;;;;;24.20;18.37;;;;;;;5.12;80.02;99484.38;2904046;80;21149;-64
2020/12/13 04:33:06;;;;;;;34.58;20.88;;;;;;;5.17;80.11;99485.34;2904146;80;21577;-65
2020/12/13 04:37:08;;;;;;;27.40;18.52;;;;;;;5.21;79.79;99492.07;2904120;81;21542;-65
2020/12/13 04:41:12;;;;;;;30.52;19.23;;;;;;;5.11;79.49;99510.34;2904141;82;21132;-65
2020/12/13 04:45:15;;;;;;;27.55;19.98;;;;;;;5.06;80.18;99501.47;2904044;81;22303;-64
2020/12/13 04:49:23;;;;;;;29.30;17.45;;;;;;;5.09;80.15;99510.94;2903952;82;21175;-65
2020/12/13 04:53:31;;;;;;;24.20;17.87;;;;;;;5.11;79.97;99507.25;2903943;82;21598;-64
2020/12/13 04:57:35;;;;;;;26.23;18.50;;;;;;;5.13;79.99;99508.47;2904279;81;21116;-65
2020/12/13 05:01:38;;;;;;;23.85;17.02;;;;;;;5.05;79.96;99513.43;2903907;81;21120;-65
2020/12/13 05:05:40;;;;;;;33.35;19.37;;;;;;;5.00;80.25;99522.98;2904430;81;21622;-64
2020/12/13 05:09:49;;;;;;;33.90;19.52;;;;;;;5.03;80.80;99519.30;2904109;81;21578;-64
2020/12/13 05:13:51;;;;;;;25.97;18.45;;;;;;;5.24;81.25;99518.24;2904654;81;21144;-65
2020/12/13 05:17:59;;;;;;;24.25;17.77;;;;;;;5.32;80.13;99521.66;2904836;82;21116;-65
2020/12/13 05:22:02;;;;;;;28.95;21.07;;;;;;;5.37;80.44;99520.83;2905095;80;21163;-64
2020/12/13 05:26:05;;;;;;;28.73;21.07;;;;;;;5.43;80.22;99518.59;2879993;82;21156;-64
2020/12/13 05:30:11;;;;;;;24.57;20.15;;;;;;;5.46;80.03;99525.42;2879532;82;21578;-65
2020/12/13 05:34:16;;;;;;;31.12;18.10;;;;;;;5.52;80.38;99532.91;2905093;82;21176;-65
2020/12/13 05:38:22;;;;;;;34.55;21.75;;;;;;;5.71;80.87;99540.31;2905039;80;21156;-64
2020/12/13 05:42:32;;;;;;;27.85;17.10;;;;;;;5.96;80.30;99543.77;2905001;81;21151;-66
2020/12/13 05:55:00;;;;;;;34.60;23.92;;;;;;;6.05;79.25;99548.87;2905039;81;21143;-64
2020/12/13 05:59:03;;;;;;;34.03;20.95;;;;;;;6.21;78.87;99547.25;2905021;81;21140;-65
2020/12/13 06:03:06;;;;;;;28.35;21.42;;;;;;;6.30;78.43;99552.33;2904939;81;21120;-63
2020/12/13 06:07:12;;;;;;;28.65;18.32;;;;;;;6.35;77.77;99547.98;2905054;81;21152;-64
2020/12/13 06:11:20;;;;;;;30.35;19.40;;;;;;;6.34;77.43;99557.73;2905743;81;21172;-65
2020/12/13 06:15:23;;;;;;;24.95;16.75;;;;;;;6.37;77.31;99560.13;2904949;82;21143;-65
2020/12/13 06:19:30;;;;;;;25.68;17.15;;;;;;;6.35;76.97;99562.52;2905050;81;21590;-66
2020/12/13 06:23:32;;;;;;;35.85;21.30;;;;;;;6.27;76.64;99565.73;2905098;81;21124;-64
2020/12/13 06:27:35;;;;;;;25.48;17.07;;;;;;;6.17;76.62;99572.69;2904952;81;21578;-64
2020/12/13 06:31:40;;;;;;;27.80;18.32;;;;;;;6.04;76.73;99574.91;2905245;81;21192;-65
2020/12/13 06:35:43;;;;;;;32.58;21.70;;;;;;;5.96;76.93;99576.77;2905265;81;21140;-65
2020/12/13 06:39:47;;;;;;;27.02;17.77;;;;;;;5.99;77.34;99587.58;2905421;81;21120;-65
2020/12/13 06:43:56;;;;;;;29.70;19.20;;;;;;;5.95;76.99;99590.92;2879883;82;22143;-64
2020/12/13 06:47:59;;;;;;;28.27;17.85;;;;;;;5.84;77.21;99600.13;2905110;82;21171;-65
2020/12/13 06:52:02;;;;;;;28.12;21.82;;;;;;;5.76;77.69;99607.28;2905066;81;21546;-64
2020/12/13 06:56:09;;;;;;;25.57;17.92;;;;;;;5.89;78.58;99611.64;2905718;81;21088;-65
2020/12/13 07:00:13;;;;;;;30.60;20.12;;;;;;;6.03;78.24;99608.05;2905215;82;21152;-65
2020/12/13 07:04:31;;;;;;;39.53;23.67;;;;;;;6.17;78.25;99616.25;2905693;82;21116;-64
2020/12/13 07:08:33;;;;;;;32.30;19.87;;;;;;;6.31;77.77;99618.72;2904926;82;21591;-65
2020/12/13 07:12:37;;;;;;;32.13;20.75;;;;;;;6.32;77.22;99629.65;2879962;81;21148;-64
2020/12/13 07:16:47;;;;;;;34.53;20.45;;;;;;;6.39;77.39;99634.83;2904209;81;21143;-65
2020/12/13 07:20:50;;;;;;;28.83;19.05;;;;;;;6.47;77.26;99641.32;2904516;82;21081;-65
2020/12/13 07:24:53;;;;;;;31.87;21.25;;;;;;;6.50;77.20;99641.95;2904471;81;21148;-65
2020/12/13 07:28:58;;;;;;;34.15;22.60;;;;;;;6.53;77.27;99640.88;2904116;82;21530;-65
2020/12/13 07:33:02;;;;;;;31.87;17.25;;;;;;;6.56;77.03;99642.79;2904652;81;21128;-64
2020/12/13 07:37:05;;;;;;;37.45;24.12;;;;;;;6.52;76.79;99651.09;2904280;82;21479;-65
2020/12/13 07:41:16;;;;;;;33.33;21.02;;;;;;;6.45;77.08;99654.66;2904130;81;21155;-65
2020/12/13 07:45:20;;;;;;;37.83;24.90;;;;;;;6.34;77.11;99663.39;2904566;82;21151;-65
2020/12/13 07:49:23;;;;;;;36.77;24.00;;;;;;;6.35;77.72;99660.25;2938076;80;21591;-65
2020/12/13 07:53:27;;;;;;;41.28;28.50;;;;;;;6.39;78.26;99667.84;2947409;80;21157;-65
2020/12/13 07:57:30;;;;;;;47.62;36.60;;;;;;;6.56;78.50;99671.03;2947414;80;21130;-65
2020/12/13 08:01:33;;;;;;;41.08;27.10;;;;;;;6.69;77.90;99682.84;2929937;80;21528;-64
2020/12/13 08:05:38;;;;;;;42.48;28.45;;;;;;;6.83;77.84;99683.97;2897152;81;21137;-66
2020/12/13 08:09:42;;;;;;;43.58;26.70;;;;;;;6.91;77.40;99687.36;2896129;82;21156;-66
2020/12/13 08:13:48;;;;;;;46.42;30.05;;;;;;;6.94;77.15;99691.55;2908904;81;21129;-65
2020/12/13 08:18:06;;;;;;;42.35;22.22;;;;;;;7.04;77.34;99696.52;2919763;81;21137;-66
2020/12/13 08:22:24;;;;;;;39.50;26.02;;;;;;;7.10;76.78;99700.50;2921367;81;21157;-65
2020/12/13 08:26:29;;;;;;;47.60;30.37;;;;;;;7.15;76.94;99698.33;2921960;81;21137;-66
2020/12/13 08:30:32;;;;;;;35.75;26.60;;;;;;;7.13;76.50;99701.58;2922201;81;21176;-65
2020/12/13 08:34:35;;;;;;;39.00;26.23;;;;;;;7.14;76.50;99706.73;2922549;81;21156;-65
2020/12/13 08:38:38;;;;;;;56.15;31.42;;;;;;;7.21;76.76;99704.46;2922699;80;21156;-66
2020/12/13 08:42:41;;;;;;;37.23;27.02;;;;;;;7.26;76.54;99712.88;2922742;81;21623;-67
2020/12/13 08:46:45;;;;;;;384.62;211.30;;;;;;;7.28;76.09;99715.41;2922201;81;21128;-66
2020/12/13 08:50:53;;;;;;;150.93;84.55;;;;;;;7.31;76.53;99717.81;2871826;82;21152;-66
2020/12/13 08:54:56;;;;;;;258.27;154.60;;;;;;;7.28;76.24;99724.20;2871767;82;21113;-67
2020/12/13 08:58:59;;;;;;;262.25;149.12;;;;;;;7.24;76.76;99724.55;2908848;80;21138;-67
2020/12/13 09:03:04;;;;;;;309.05;166.40;;;;;;;7.36;76.95;99735.99;2957797;80;21110;-66
2020/12/13 09:07:10;;;;;;;351.37;212.57;;;;;;;7.47;76.93;99743.95;2957742;80;21157;-66
2020/12/13 09:11:35;;;;;;;62.08;38.02;;;;;;;7.57;76.63;99743.59;2957744;80;21149;-65
2020/12/13 09:15:38;;;;;;;539.55;384.92;;;;;;;7.65;76.45;99746.10;2953107;80;21165;-65
2020/12/13 09:19:53;;;;;;;58.45;36.70;;;;;;;7.74;76.20;99753.34;2903752;80;21796;-66
2020/12/13 09:23:58;;;;;;;36.85;25.15;;;;;;;7.85;75.69;99751.98;2902549;81;21153;-65
2020/12/13 09:28:02;;;;;;;91.63;60.10;;;;;;;7.85;75.17;99747.19;2906272;81;21125;-66
2020/12/13 09:32:07;;;;;;;134.22;87.55;;;;;;;7.89;75.45;99751.28;2906241;81;21156;-66
2020/12/13 09:36:14;;;;;;;75.97;48.23;;;;;;;7.97;75.16;99759.47;2906215;81;21133;-64
2020/12/13 09:40:16;;;;;;;38.23;23.52;;;;;;;8.06;75.04;99759.22;2907704;81;21129;-64
2020/12/13 09:44:20;;;;;;;349.65;230.60;;;;;;;8.13;74.79;99764.84;2907558;81;21121;-65
2020/12/13 09:48:22;;;;;;;60.75;41.23;;;;;;;8.22;74.60;99769.89;2907795;81;21168;-65
2020/12/13 09:52:26;;;;;;;40.25;26.07;;;;;;;8.33;74.54;99772.53;2907731;81;21141;-65
2020/12/13 09:56:30;;;;;;;42.10;25.75;;;;;;;8.37;73.90;99773.14;2907704;81;21156;-64
2020/12/13 10:00:33;;;;;;;34.63;24.05;;;;;;;8.35;73.62;99767.09;2905302;81;21690;-64
2020/12/13 10:04:36;;;;;;;36.17;24.47;;;;;;;8.34;73.61;99776.00;2904889;81;21564;-65
2020/12/13 10:13:02;;;;;;;39.60;25.85;;;;;;;8.40;73.93;99766.25;2903897;81;21122;-64
2020/12/13 10:17:06;;;;;;;35.50;24.12;;;;;;;8.44;73.75;99768.51;2895758;82;22238;-66
2020/12/13 10:21:10;;;;;;;47.05;29.87;;;;;;;8.43;73.20;99766.00;2895223;81;22248;-64
2020/12/13 10:25:12;;;;;;;52.70;32.45;;;;;;;8.48;72.91;99766.46;2895631;82;21575;-66
2020/12/13 10:29:16;;;;;;;56.68;33.30;;;;;;;8.51;73.66;99769.39;2896990;82;22270;-65
2020/12/13 10:33:19;;;;;;;54.93;31.55;;;;;;;8.60;73.55;99770.45;2894495;82;21145;-66
2020/12/13 10:37:22;;;;;;;52.65;32.42;;;;;;;8.73;73.59;99769.77;2895525;80;21171;-67
2020/12/13 10:41:26;;;;;;;44.80;30.37;;;;;;;8.71;73.02;99757.98;2896319;82;21166;-67
2020/12/13 10:45:29;;;;;;;54.20;35.38;;;;;;;8.67;72.81;99761.01;2896589;81;21142;-68
2020/12/13 10:49:32;;;;;;;51.70;34.18;;;;;;;8.57;72.44;99759.59;2898525;80;21455;-68
2020/12/13 10:53:34;;;;;;;49.35;32.93;;;;;;;8.54;73.24;99769.13;2898423;81;21153;-66
2020/12/13 10:57:38;;;;;;;68.80;43.28;;;;;;;8.59;73.12;99760.31;2896287;81;21145;-68
2020/12/13 11:01:44;;;;;;;85.47;55.60;;;;;;;8.63;73.38;99767.03;2896560;81;21145;-68
2020/12/13 11:05:48;;;;;;;90.53;56.70;;;;;;;8.68;73.36;99767.52;2895924;82;21170;-64
2020/12/13 11:09:52;;;;;;;84.90;51.92;;;;;;;8.68;73.11;99770.64;2895873;82;21161;-65
2020/12/13 11:13:54;;;;;;;72.12;51.37;;;;;;;8.70;73.43;99766.05;2902787;80;21169;-64
2020/12/13 11:17:58;;;;;;;90.22;55.85;;;;;;;8.64;73.01;99763.91;2920174;81;21153;-67
2020/12/13 11:22:02;;;;;;;87.12;51.68;;;;;;;8.62;73.69;99765.86;2920687;80;21172;-66
2020/12/13 11:26:08;;;;;;;67.78;43.25;;;;;;;8.61;73.57;99765.00;2920822;80;21116;-66
2020/12/13 11:30:12;;;;;;;72.53;48.70;;;;;;;8.48;73.62;99766.96;2920685;80;21192;-66
2020/12/13 11:34:15;;;;;;;75.25;45.83;;;;;;;8.37;73.93;99773.95;2919723;81;21141;-67
2020/12/13 11:38:19;;;;;;;53.92;35.38;;;;;;;8.43;74.44;99782.73;2920403;80;21109;-66
2020/12/13 11:42:22;;;;;;;60.28;39.18;;;;;;;8.49;74.19;99773.44;2920005;80;21144;-67
2020/12/13 11:46:25;;;;;;;61.20;39.73;;;;;;;8.44;74.23;99771.16;2919267;81;21105;-66
2020/12/13 11:50:29;;;;;;;52.00;31.50;;;;;;;8.43;74.13;99773.45;2919845;80;21160;-67
2020/12/13 11:54:31;;;;;;;53.02;37.42;;;;;;;8.40;73.99;99776.36;2919538;81;21611;-67
2020/12/13 11:58:34;;;;;;;138.82;83.82;;;;;;;8.37;74.12;99776.61;2919793;80;21140;-65
2020/12/13 12:02:41;;;;;;;87.12;51.15;;;;;;;8.39;74.52;99779.16;2916292;80;21121;-65
2020/12/13 12:06:45;;;;;;;93.67;59.13;;;;;;;8.38;74.37;99780.12;2913097;80;21137;-65
2020/12/13 12:10:48;;;;;;;111.15;69.30;;;;;;;8.38;74.67;99791.55;2921429;81;21073;-65
2020/12/13 12:14:51;;;;;;;137.28;78.65;;;;;;;8.35;74.35;99791.80;2919652;81;21193;-65
2020/12/13 12:19:00;;;;;;;128.70;77.90;;;;;;;8.33;74.44;99788.90;2918381;80;21188;-65
2020/12/13 12:23:09;;;;;;;71.65;38.90;;;;;;;8.32;74.70;99790.72;2920808;80;21163;-65
2020/12/13 12:27:27;;;;;;;103.27;71.80;;;;;;;8.35;74.84;99794.91;2948020;80;21135;-65
2020/12/13 12:31:34;;;;;;;119.28;76.35;;;;;;;8.39;75.17;99790.58;2918195;81;21662;-64
2020/12/13 12:35:44;;;;;;;156.07;103.38;;;;;;;8.48;75.06;99792.14;2918776;81;21805;-64
2020/12/13 12:39:52;;;;;;;80.12;52.15;;;;;;;8.52;75.09;99797.08;2918651;81;21123;-64
2020/12/13 12:43:59;;;;;;;75.32;52.15;;;;;;;8.53;74.85;99792.63;2947714;80;21134;-64
2020/12/13 12:48:11;;;;;;;73.35;44.88;;;;;;;8.48;74.85;99791.64;2957632;80;21081;-65
2020/12/13 12:52:16;;;;;;;59.55;41.23;;;;;;;8.52;75.34;99798.41;2957680;80;21854;-65
2020/12/13 12:56:59;;;;;;;65.72;43.23;;;;;;;8.55;75.26;99799.50;2956921;80;21153;-65
2020/12/13 13:01:04;;;;;;;62.35;41.88;;;;;;;8.62;74.99;99807.77;2957786;80;21157;-67
2020/12/13 13:19:46;;;;;;;68.17;42.55;;;;;;;8.68;75.12;99810.42;3002208;79;22713;-64
2020/12/13 13:23:48;;;;;;;74.07;50.73;;;;;;;8.57;74.80;99817.45;2996819;78;21609;-65
2020/12/13 13:27:52;;;;;;;146.18;93.27;;;;;;;8.47;75.12;99822.27;2964473;80;21619;-65
2020/12/13 13:31:56;;;;;;;104.35;59.63;;;;;;;8.43;75.78;99822.48;2964472;80;21141;-65
2020/12/13 13:35:59;;;;;;;119.08;77.85;;;;;;;8.46;75.69;99824.56;2964277;80;21198;-64
2020/12/13 13:40:04;;;;;;;91.37;61.35;;;;;;;8.49;75.94;99829.61;2964134;79;21144;-64
2020/12/13 13:44:18;;;;;;;263.07;187.90;;;;;;;8.57;75.44;99832.50;2964528;80;22231;-64
2020/12/13 13:52:38;;;;;;;132.03;89.87;;;;;;;8.66;75.91;99839.73;2964511;80;21136;-65
2020/12/13 14:01:03;;;;;;;103.72;59.67;;;;;;;8.55;75.11;99844.58;2939736;79;21132;-67
2020/12/13 14:05:08;;;;;;;157.70;105.95;;;;;;;8.46;75.46;99856.37;2991361;79;21132;-67
2020/12/13 14:09:12;;;;;;;95.20;67.17;;;;;;;8.49;75.89;99864.89;2946798;80;21144;-67
2020/12/13 14:13:16;;;;;;;88.72;56.20;;;;;;;8.57;75.90;99866.50;2953695;79;21632;-68
2020/12/13 14:17:19;;;;;;;135.50;88.72;;;;;;;8.65;75.82;99874.31;2948982;79;21145;-67
2020/12/13 14:21:24;;;;;;;187.25;103.97;;;;;;;8.71;75.59;99867.17;2917073;80;21162;-67
2020/12/13 14:25:28;;;;;;;;;;;;;;;8.75;75.28;99877.06;2919789;81;21154;-68
2020/12/13 14:29:33;;;;;;;124.38;74.07;;;;;;;8.74;74.85;99882.01;2893558;81;20186;-67
2020/12/13 14:33:39;;;;;;;161.28;97.12;;;;;;;8.68;74.85;99886.84;2946569;80;21121;-68
2020/12/13 14:37:41;;;;;;;108.97;69.60;;;;;;;8.69;75.04;99897.81;2938060;80;21611;-68
2020/12/13 14:41:54;;;;;;;161.28;95.57;;;;;;;8.67;74.74;99890.94;2921921;80;21140;-68
2020/12/13 14:45:57;;;;;;;140.07;79.25;;;;;;;8.57;74.61;99889.50;2908732;80;21105;-70
2020/12/13 14:50:01;;;;;;;118.75;74.65;;;;;;;8.50;74.83;99891.80;2925890;80;21123;-69
2020/12/13 14:54:04;;;;;;;110.90;68.92;;;;;;;8.44;74.86;99902.86;2916943;80;21554;-69
2020/12/13 14:58:07;;;;;;;81.95;52.73;;;;;;;8.40;74.85;99903.58;2915386;81;21716;-70
2020/12/13 15:02:10;;;;;;;76.82;52.15;;;;;;;8.39;74.99;99903.72;2950209;79;21586;-68
2020/12/13 15:06:24;;;;;;;81.15;51.37;;;;;;;8.33;75.00;99906.83;2911841;80;21135;-68
2020/12/13 15:10:32;;;;;;;71.02;46.15;;;;;;;8.30;75.37;99910.58;2907345;81;21543;-67
2020/12/13 15:14:45;;;;;;;88.33;57.13;;;;;;;8.28;75.54;99916.48;2902361;81;21100;-69
2020/12/13 15:18:40;;;;;;;65.10;44.25;;;;;;;8.31;75.64;99920.69;2927265;78;21124;-67
2020/12/13 15:22:43;;;;;;;164.32;92.53;;;;;;;8.29;75.42;99914.20;2942453;79;21156;-70
2020/12/13 15:26:46;;;;;;;145.82;88.52;;;;;;;8.28;75.57;99920.47;2948304;78;21686;-68
2020/12/13 15:30:49;;;;;;;201.18;115.40;;;;;;;8.29;75.47;99922.97;2938669;78;21152;-67
2020/12/13 15:34:54;;;;;;;120.80;69.65;;;;;;;8.23;75.17;99927.44;2933579;78;21698;-68
2020/12/13 15:38:56;;;;;;;127.12;76.07;;;;;;;8.13;75.39;99929.10;2951338;80;21141;-68
2020/12/13 15:43:05;;;;;;;174.23;111.42;;;;;;;8.04;75.75;99928.50;2949129;78;21140;-66
2020/12/13 15:47:09;;;;;;;314.88;185.73;;;;;;;7.98;76.18;99941.73;2921498;80;21627;-66
2020/12/13 15:51:15;;;;;;;166.03;97.78;;;;;;;8.01;76.40;99938.84;2948441;80;21143;-67
2020/12/13 15:55:23;;;;;;;102.45;62.62;;;;;;;7.91;76.21;99940.52;2946604;80;21147;-66
2020/12/13 15:59:26;;;;;;;121.10;72.78;;;;;;;7.75;76.71;99941.69;2946944;80;21115;-67
2020/12/13 16:03:30;;;;;;;228.40;138.03;;;;;;;7.66;77.19;99935.73;2946866;80;21147;-67
2020/12/13 16:07:39;;;;;;;236.03;145.82;;;;;;;7.62;77.65;99940.45;2920384;80;21132;-67
2020/12/13 16:11:40;;;;;;;269.37;178.70;;;;;;;7.67;77.81;99948.05;2920844;80;21143;-66
2020/12/13 16:15:45;;;;;;;184.87;128.85;;;;;;;7.69;77.70;99954.06;2946712;80;21318;-67
2020/12/13 16:19:48;;;;;;;164.65;113.68;;;;;;;7.70;77.76;99955.26;2931371;80;21566;-67
2020/12/13 16:23:51;;;;;;;264.95;174.18;;;;;;;7.70;77.81;99957.91;2935098;80;21133;-66
2020/12/13 16:27:58;;;;;;;120.50;75.08;;;;;;;7.73;77.83;99967.44;2953162;80;21165;-66
2020/12/13 16:32:02;;;;;;;124.20;80.95;;;;;;;7.74;77.67;99960.31;2954191;79;21137;-67
2020/12/13 16:36:07;;;;;;;92.88;59.58;;;;;;;7.60;77.79;99966.19;2920816;80;21145;-66
2020/12/13 16:40:12;;;;;;;147.53;74.35;;;;;;;7.48;78.06;99977.67;2915938;80;21152;-66
2020/12/13 16:44:19;;;;;;;83.52;52.83;;;;;;;7.40;78.49;99975.59;2918053;81;21169;-66
2020/12/13 16:56:32;;;;;;;88.42;54.77;;;;;;;7.42;78.72;99985.58;2954071;80;21131;-66
2020/12/13 17:00:36;;;;;;;120.67;82.53;;;;;;;7.35;78.88;99990.48;2920503;80;21176;-67
2020/12/13 17:04:39;;;;;;;127.25;75.60;;;;;;;7.42;79.25;99990.88;2953408;80;21125;-67
2020/12/13 17:08:42;;;;;;;106.80;67.60;;;;;;;7.47;79.21;99988.76;2934143;79;21149;-66
2020/12/13 17:12:45;;;;;;;123.38;80.40;;;;;;;7.48;78.96;99993.56;2928584;79;21173;-66
2020/12/13 17:16:48;;;;;;;120.92;80.40;;;;;;;7.43;79.15;99997.86;2918876;79;21572;-66
2020/12/13 17:20:52;;;;;;;193.72;133.47;;;;;;;7.47;79.52;100003.78;2862527;81;21618;-70
2020/12/13 17:24:56;;;;;;;103.87;68.35;;;;;;;7.56;79.49;100010.56;2863854;82;21153;-66
2020/12/13 17:28:59;;;;;;;111.62;75.95;;;;;;;7.64;79.19;100015.76;2864426;83;21647;-66
2020/12/13 17:33:02;;;;;;;97.35;65.47;;;;;;;7.68;78.97;100018.57;2864571;82;21200;-66
2020/12/13 17:37:10;;;;;;;99.92;69.72;;;;;;;7.69;78.74;100015.79;2864429;83;21162;-66
2020/12/13 17:41:14;;;;;;;93.25;53.90;;;;;;;7.74;78.95;100016.78;2864382;82;21148;-66
2020/12/13 17:45:20;;;;;;;82.27;57.70;;;;;;;7.80;78.49;100022.11;2864564;83;21141;-66
2020/12/13 17:49:23;;;;;;;100.05;65.10;;;;;;;7.68;78.17;100016.75;2859456;81;21607;-66
2020/12/13 17:53:36;;;;;;;111.45;72.27;;;;;;;7.66;78.84;100025.29;2860673;83;21174;-66
2020/12/13 17:57:40;;;;;;;92.62;61.65;;;;;;;7.70;78.97;100025.91;2862906;82;21149;-66
2020/12/13 18:01:42;;;;;;;102.25;65.45;;;;;;;7.79;79.24;100031.84;2859862;81;21165;-66
2020/12/13 18:05:46;;;;;;;121.25;78.20;;;;;;;7.88;78.73;100033.45;2861095;81;21141;-66
2020/12/13 18:09:49;;;;;;;83.47;58.00;;;;;;;7.92;78.57;100024.31;2863058;81;22245;-66
2020/12/13 18:13:52;;;;;;;95.22;61.75;;;;;;;7.88;77.98;100029.48;2850007;81;21663;-66
2020/12/13 18:17:55;;;;;;;98.82;63.20;;;;;;;7.74;78.29;100037.96;2874413;79;21149;-66
2020/12/13 18:22:00;;;;;;;110.95;68.25;;;;;;;7.63;78.67;100038.75;2912578;79;21141;-66
2020/12/13 18:26:07;;;;;;;126.75;73.70;;;;;;;7.58;79.06;100046.20;2933315;79;21121;-67
2020/12/13 18:30:12;;;;;;;106.70;63.80;;;;;;;7.71;79.97;100041.67;2927605;79;21152;-67
2020/12/13 18:34:17;;;;;;;115.90;66.82;;;;;;;7.91;79.50;100047.78;2923246;79;21596;-67
2020/12/13 18:38:20;;;;;;;107.83;75.20;;;;;;;8.00;78.85;100041.32;2925581;79;21127;-67
2020/12/13 18:42:23;;;;;;;105.35;72.97;;;;;;;8.11;78.80;100043.63;2920390;79;21176;-67
2020/12/13 18:46:26;;;;;;;95.67;62.70;;;;;;;8.22;78.35;100045.45;2914815;79;21710;-66
2020/12/13 18:50:29;;;;;;;93.00;61.13;;;;;;;8.24;77.95;100043.53;2989015;78;21139;-66
2020/12/13 18:54:32;;;;;;;107.65;67.45;;;;;;;8.25;77.88;100052.70;2931003;79;21166;-66
2020/12/13 18:58:35;;;;;;;95.38;59.70;;;;;;;8.28;77.63;100060.91;2944903;78;21515;-66
2020/12/13 19:07:02;;;;;;;92.02;58.85;;;;;;;8.19;77.67;100069.55;2933162;78;21165;-66
2020/12/13 19:11:05;;;;;;;82.65;55.38;;;;;;;8.18;77.57;100068.72;2956242;80;21129;-66
2020/12/13 19:15:09;;;;;;;106.43;66.65;;;;;;;8.13;77.48;100074.35;2957444;79;21559;-66
2020/12/13 19:19:13;;;;;;;107.92;72.17;;;;;;;8.09;77.38;100076.88;2928600;80;21164;-66
2020/12/13 19:23:19;;;;;;;107.12;72.78;;;;;;;7.97;77.49;100075.13;2907298;79;21634;-66
2020/12/13 19:27:26;;;;;;;;;;;;;;;7.89;77.87;100078.34;2956751;79;21147;-66
2020/12/13 19:31:27;;;;;;;114.80;73.12;;;;;;;7.89;78.16;100090.76;2953448;80;20182;-64
2020/12/13 19:35:30;;;;;;;103.70;66.47;;;;;;;7.94;78.39;100099.20;3000288;79;21139;-66
2020/12/13 19:39:33;;;;;;;107.07;68.45;;;;;;;7.99;78.37;100099.70;2966869;79;21687;-66
2020/12/13 19:43:36;;;;;;;190.77;119.40;;;;;;;8.06;78.24;100103.59;2973588;80;22217;-64